x

Folly Island, Sc (fbis1) Weather Station

2:00pm - Fri 23rd Feb 2018 All times are EST. -5 hours from GMT.

  • Wind
    7mph, 8mph gusts
  • Air Temp 67°f
  • Sea Pressure 1029.6mb
  • Folly Island, Sc
  • Folly Island, Sc

More Historic Weather Station data

Upgrade to MSW Pro to gain access to the past 30 days of data for over 8000 Wavebouys and Weather Stations around the globe.

Join

Comparision Forecast

View Surf forecast
   
Fri 02/23 2:00pm 7 8 mph 1029.6mb 67f
1:00pm 7 7 mph 1030.3mb 66f
12:00pm 3 5 mph 1031mb 69f
11:00am 7 8 mph 1031.4mb 67f
10:00am 6 7 mph 1031.9mb 64f
9:00am 3 5 mph 1031.6mb 64f
8:00am 5 5 mph 1031.5mb 64f
7:00am 3 3 mph 1031mb 63f
6:00am 2 3 mph 1030.5mb 63f
5:00am 5 6 mph 1030mb 63f
4:00am 8 8 mph 1029.9mb 63f
3:00am 7 7 mph 1030.3mb 64f
2:00am 5 6 mph 1030.6mb 63f
1:00am 6 6 mph 1031mb 64f
12:00am 6 7 mph 1031.1mb 65f
Thu 02/22 11:00pm 7 7 mph 1031.2mb 64f
10:00pm 9 9 mph 1031.2mb 65f
9:00pm 9 10 mph 1031.3mb 65f
8:00pm 9 9 mph 1031.3mb 65f
7:00pm 5 5 mph 1030.9mb 65f
6:00pm 2 3 mph 1031mb 66f
5:00pm 7 7 mph 1030.8mb 67f
4:00pm 7 8 mph 1030.9mb 67f
3:00pm 6 7 mph 1031.2mb 67f
2:00pm 7 7 mph 1031.6mb 67f
1:00pm 2 2 mph 1032.2mb 68f
12:00pm 2 3 mph 1033.3mb 66f
11:00am 3 3 mph 1033.6mb 65f
10:00am 2 2 mph 1033.2mb 63f
9:00am 2 3 mph 1033.1mb 62f
8:00am 3 3 mph 1032.6mb 61f
7:00am 2 2 mph 1032mb 62f
6:00am 2 3 mph 1031.6mb 63f
5:00am  -  0 mph 1031.1mb 63f
4:00am 3 3 mph 1030.7mb 64f
3:00am 3 3 mph 1030.7mb 62f
2:00am 7 8 mph 1030.9mb 63f
1:00am 9 10 mph 1031.1mb 63f
12:00am 9 9 mph 1031.3mb 64f
Wed 02/21 11:00pm 8 8 mph 1031.7mb 64f
10:00pm 9 9 mph 1031.4mb 63f
9:00pm 10 11 mph 1031.4mb 64f
8:00pm 9 9 mph 1031.5mb 64f
7:00pm 6 6 mph 1031.3mb 64f
6:00pm 2 3 mph 1031.1mb 65f
5:00pm  -  2 mph 1030.7mb 67f
4:00pm 7 7 mph 1030.8mb 67f
3:00pm 5 5 mph 1031mb 66f
2:00pm 3 3 mph 1031.2mb 67f
1:00pm 5 5 mph 1031.7mb 66f
12:00pm 8 8 mph 1032.4mb 64f
11:00am 6 6 mph 1032.9mb 64f
10:00am 2 2 mph 1032.8mb 64f
9:00am 1 2 mph 1032.4mb 63f
8:00am 2 2 mph 1032.1mb 61f
7:00am 3 3 mph 1031.7mb 61f
6:00am 2 3 mph 1031.2mb 62f
5:00am 5 5 mph 1030.7mb 62f
4:00am 6 6 mph 1030.3mb 62f
3:00am 6 7 mph 1030.3mb 63f
2:00am 9 9 mph 1030.6mb 63f
1:00am 9 10 mph 1030.9mb 63f
12:00am 8 8 mph 1031.1mb 62f
Tue 02/20 11:00pm 3 3 mph 1031.4mb 62f
10:00pm 2 3 mph 1031.5mb 62f
9:00pm 2 3 mph 1031.2mb 62f
8:00pm 3 3 mph 1030.9mb 64f
7:00pm 6 7 mph 1030.6mb 64f
6:00pm 7 7 mph 1030.5mb 63f
5:00pm 7 8 mph 1030.2mb 64f
4:00pm 5 6 mph 1030.1mb 65f
3:00pm 3 5 mph 1030.1mb 65f
2:00pm 5 6 mph 1030.2mb 66f
1:00pm 5 5 mph 1030.8mb 66f
12:00pm 3 3 mph 1031.2mb 66f
11:00am 2 3 mph 1031.8mb 64f
10:00am 2 3 mph 1031.7mb 62f
9:00am 3 5 mph 1031.2mb 61f
8:00am 5 6 mph 1030.9mb 60f
7:00am 6 7 mph 1030.5mb 60f
6:00am 5 5 mph 1030mb 59f
5:00am 6 6 mph 1029.4mb 60f
4:00am 5 6 mph 1029.2mb 60f
3:00am 5 6 mph 1029.2mb 61f
2:00am 6 7 mph 1029.6mb 60f
1:00am 3 5 mph 1029.5mb 60f
12:00am 5 6 mph 1029.6mb 59f
Mon 02/19 11:00pm 1 2 mph 1029.5mb 60f
10:00pm 2 3 mph 1029.4mb 60f
9:00pm 6 7 mph 1029.2mb 60f